createdAt,value
2022-09-12T00:03:01.796Z,97037.19
2022-09-12T00:08:04.728Z,97024.91
2022-09-12T00:13:07.470Z,97039.41
2022-09-12T00:18:17.722Z,97029.72
2022-09-12T00:23:20.498Z,97000.53
2022-09-12T00:28:23.207Z,97006.06
2022-09-12T00:33:27.248Z,97001.78
2022-09-12T00:38:30.066Z,96993.25
2022-09-12T00:43:38.128Z,97012.66
2022-09-12T00:48:44.038Z,97003.13
2022-09-12T00:53:47.883Z,96992.47
2022-09-12T00:58:53.505Z,96973.34
2022-09-12T01:03:57.481Z,96968.94
2022-09-12T01:09:03.527Z,96963.88
2022-09-12T01:14:06.471Z,96982.06
2022-09-12T01:19:39.542Z,96972.41
2022-09-12T01:24:52.606Z,96929.16
2022-09-12T01:30:21.785Z,96885.66
2022-09-12T01:35:31.547Z,96892.72
2022-09-12T01:40:41.375Z,96878.66
2022-09-12T01:45:47.226Z,96790.63
2022-09-12T01:50:54.025Z,96869.25
2022-09-12T01:56:01.765Z,96848.88
2022-09-12T02:01:08.489Z,96867.00
2022-09-12T02:06:17.601Z,96838.78
2022-09-12T02:11:20.886Z,96831.75
2022-09-12T02:16:27.346Z,96835.59
2022-09-12T02:21:33.121Z,96794.84
2022-09-12T02:26:38.809Z,96809.19
2022-09-12T02:31:46.045Z,96802.19
2022-09-12T02:36:56.104Z,96795.25
2022-09-12T02:42:00.858Z,96781.25
2022-09-12T02:47:07.455Z,96810.47
2022-09-12T02:52:11.475Z,96787.53
2022-09-12T02:57:22.405Z,96792.28
2022-09-12T03:02:33.717Z,96787.03
2022-09-12T03:07:50.507Z,96768.66
2022-09-12T03:12:54.180Z,96771.47
2022-09-12T03:18:04.677Z,96751.31
2022-09-12T03:23:15.626Z,96759.38
2022-09-12T03:28:19.809Z,96748.78
2022-09-12T03:33:23.731Z,96740.16
2022-09-12T03:38:27.702Z,96721.53
2022-09-12T03:43:30.405Z,96716.31
2022-09-12T03:48:33.049Z,96697.00
2022-09-12T03:53:37.155Z,96663.78
2022-09-12T03:58:39.809Z,96691.88
2022-09-12T04:03:42.848Z,96684.06
2022-09-12T04:08:52.484Z,96678.97
2022-09-12T04:13:55.287Z,96673.63
2022-09-12T04:18:58.061Z,96679.03
2022-09-12T04:24:02.375Z,96674.91
2022-09-12T04:29:05.027Z,96650.91
2022-09-12T04:34:07.883Z,96647.63
2022-09-12T04:39:12.745Z,96648.41
2022-09-12T04:44:15.985Z,96632.59
2022-09-12T04:49:19.293Z,96644.44
2022-09-12T04:54:23.273Z,96638.47
2022-09-12T04:59:26.433Z,96598.53
2022-09-12T05:04:29.223Z,96597.88
2022-09-12T05:09:33.185Z,96579.34
2022-09-12T05:14:35.796Z,96541.41
2022-09-12T05:19:39.092Z,96529.00
2022-09-12T05:24:49.845Z,96415.88
2022-09-12T05:29:53.437Z,96484.25
2022-09-12T05:34:56.173Z,96456.75
2022-09-12T05:40:00.253Z,96450.75
2022-09-12T05:45:02.971Z,96418.88
2022-09-12T05:50:10.716Z,96193.78
2022-09-12T05:55:14.655Z,96383.34
2022-09-12T06:00:18.928Z,96361.91
2022-09-12T06:05:21.649Z,96361.44
2022-09-12T06:10:26.264Z,96310.06
2022-09-12T06:15:28.857Z,96308.13
2022-09-12T06:20:31.443Z,96278.81
2022-09-12T06:25:35.415Z,96274.91
2022-09-12T06:30:38.004Z,96223.94
2022-09-12T06:35:40.900Z,96227.31
2022-09-12T06:40:45.317Z,96215.13
2022-09-12T06:45:50.273Z,96136.38
2022-09-12T06:51:02.033Z,96203.63
2022-09-12T06:56:08.488Z,96164.81
2022-09-12T07:01:11.574Z,96165.31
2022-09-12T07:06:15.817Z,96154.13
2022-09-12T07:11:21.106Z,96153.50
2022-09-12T07:16:24.572Z,96146.88
2022-09-12T07:21:27.666Z,96164.41
2022-09-12T07:26:32.365Z,95979.19
2022-09-12T07:31:34.952Z,96148.06
2022-09-12T07:36:39.074Z,96172.16
2022-09-12T07:41:43.008Z,96161.19
2022-09-12T07:46:45.597Z,96159.84
2022-09-12T07:51:48.183Z,96009.66
2022-09-12T07:56:52.134Z,96205.53
2022-09-12T08:01:55.177Z,96249.50
2022-09-12T08:06:57.781Z,96254.81
2022-09-12T08:12:01.921Z,96293.31
2022-09-12T08:17:04.553Z,96323.53
2022-09-12T08:22:07.128Z,96349.88
2022-09-12T08:27:11.553Z,96387.53
2022-09-12T08:32:14.178Z,96437.97
2022-09-12T08:37:16.775Z,96465.47
2022-09-12T08:42:27.386Z,96491.19
2022-09-12T08:47:32.354Z,96553.59
2022-09-12T08:52:39.195Z,96602.50
2022-09-12T08:57:43.131Z,96650.72
2022-09-12T09:03:01.670Z,96695.06
2022-09-12T09:08:26.822Z,96599.09
2022-09-12T09:13:55.906Z,96813.75
2022-09-12T09:18:59.662Z,96865.47
2022-09-12T09:24:05.861Z,96923.22
2022-09-12T09:29:15.280Z,96980.16
2022-09-12T09:34:21.553Z,97059.69
2022-09-12T09:39:35.473Z,97141.03
2022-09-12T09:44:39.741Z,97211.88
2022-09-12T09:49:42.749Z,97246.31
2022-09-12T09:54:49.440Z,97344.25
2022-09-12T09:59:53.372Z,97441.72
2022-09-12T10:04:58.284Z,97435.38
2022-09-12T10:10:16.277Z,97605.66
2022-09-12T10:15:21.620Z,97601.78
2022-09-12T10:20:33.283Z,97858.50
2022-09-12T10:25:36.088Z,97994.66
2022-09-12T10:30:40.211Z,98097.31
2022-09-12T10:35:47.209Z,98145.84
2022-09-12T10:40:57.053Z,98312.22
2022-09-12T10:46:38.585Z,98461.22
2022-09-12T10:51:42.955Z,98545.25
2022-09-12T10:56:56.499Z,98666.84
2022-09-12T11:02:01.663Z,98715.66
2022-09-12T11:07:24.993Z,98838.81
2022-09-12T11:12:32.383Z,98913.09
2022-09-12T11:17:47.420Z,98991.69
2022-09-12T11:23:22.548Z,99083.41
2022-09-12T11:28:37.568Z,99197.75
2022-09-12T11:33:43.472Z,99312.63
2022-09-12T11:38:52.531Z,99404.50
2022-09-12T11:44:01.169Z,99503.88
2022-09-12T11:49:08.188Z,99639.41
2022-09-12T11:54:15.436Z,99697.19
2022-09-12T11:59:30.071Z,99741.19
2022-09-12T12:04:39.161Z,99789.09
2022-09-12T12:09:48.100Z,99797.13
2022-09-12T12:14:55.617Z,99860.88
2022-09-12T12:20:04.941Z,99907.81
2022-09-12T12:25:29.607Z,100001.03
2022-09-12T12:31:02.286Z,100096.50
2022-09-12T12:36:07.219Z,100177.84
2022-09-12T12:41:44.576Z,100188.84
2022-09-12T12:47:09.645Z,100213.75
2022-09-12T12:52:17.834Z,100232.91
2022-09-12T12:57:32.415Z,100245.06
2022-09-12T13:02:40.329Z,100270.75
2022-09-12T13:07:44.285Z,100275.41
2022-09-12T13:12:48.999Z,100272.88
2022-09-12T13:17:53.565Z,100269.09
2022-09-12T13:22:57.145Z,100262.53
2022-09-12T13:28:06.110Z,100260.75
2022-09-12T13:33:19.687Z,100254.19
2022-09-12T13:38:29.199Z,100230.63
2022-09-12T13:49:16.465Z,100246.09
2022-09-12T13:54:24.438Z,100263.78
2022-09-12T13:59:27.351Z,100247.63
2022-09-12T14:04:49.264Z,100244.03
2022-09-12T14:09:55.307Z,100246.22
2022-09-12T14:14:58.882Z,100241.38
2022-09-12T14:20:04.932Z,100221.56
2022-09-12T14:25:10.240Z,100234.22
2022-09-12T14:30:22.712Z,100221.84
2022-09-12T14:35:26.864Z,100219.97
2022-09-12T14:40:36.312Z,100216.47
2022-09-12T14:45:42.147Z,100212.84
2022-09-12T14:50:50.101Z,100214.84
2022-09-12T14:56:07.725Z,100216.56
2022-09-12T15:01:26.480Z,100202.25
2022-09-12T15:06:32.971Z,100210.53
2022-09-12T15:11:35.714Z,100200.75
2022-09-12T15:16:38.841Z,100198.13
2022-09-12T15:21:42.890Z,100199.31
2022-09-12T15:26:46.517Z,100195.81
2022-09-12T15:31:51.935Z,100176.97
2022-09-12T15:36:56.087Z,100177.84
2022-09-12T15:42:12.315Z,100177.91
2022-09-12T15:47:15.345Z,100169.84
2022-09-12T15:52:22.780Z,100160.81
2022-09-12T15:57:31.802Z,100164.53
2022-09-12T16:02:44.749Z,100149.22
2022-09-12T16:07:49.924Z,100145.72
2022-09-12T16:12:55.644Z,100143.94
2022-09-12T16:18:06.372Z,100152.88
2022-09-12T16:23:13.943Z,100151.28
2022-09-12T16:28:16.875Z,100120.03
2022-09-12T16:33:19.537Z,100122.88
2022-09-12T16:38:23.713Z,100128.31
2022-09-12T16:43:26.361Z,100105.13
2022-09-12T16:48:30.136Z,100103.41
2022-09-12T16:53:35.226Z,100112.44
2022-09-12T16:58:41.940Z,100094.63
2022-09-12T17:03:45.104Z,100106.31
2022-09-12T17:08:50.695Z,100084.09
2022-09-12T17:14:10.414Z,100079.69
2022-09-12T17:19:15.952Z,100068.09
2022-09-12T17:24:20.746Z,100044.13
2022-09-12T17:29:23.516Z,100046.81
2022-09-12T17:34:26.277Z,100032.63
2022-09-12T17:39:30.524Z,100032.72
2022-09-12T17:44:34.405Z,100030.13
2022-09-12T17:49:37.729Z,100024.88
2022-09-12T17:54:41.863Z,100015.13
2022-09-12T17:59:44.526Z,100008.94
2022-09-12T18:04:48.394Z,100008.13
2022-09-12T18:09:53.007Z,99999.28
2022-09-12T18:14:55.709Z,99969.03
2022-09-12T18:19:58.420Z,99970.84
2022-09-12T18:25:02.448Z,99954.84
2022-09-12T18:30:20.762Z,99929.94
2022-09-12T18:35:25.529Z,99880.06
2022-09-12T18:40:29.680Z,99865.84
2022-09-12T18:45:32.589Z,99839.09
2022-09-12T18:50:35.230Z,99798.19
2022-09-12T18:55:42.272Z,99751.94
2022-09-12T19:00:47.969Z,99719.88
2022-09-12T19:05:50.664Z,99701.16
2022-09-12T19:10:58.023Z,99687.88
2022-09-12T19:16:01.327Z,99654.09
2022-09-12T19:21:04.557Z,99621.16
2022-09-12T19:26:10.753Z,99586.47
2022-09-12T19:31:14.666Z,99552.72
2022-09-12T19:36:41.207Z,99518.09
2022-09-12T19:41:43.609Z,99461.16
2022-09-12T19:46:46.309Z,99444.31
2022-09-12T19:51:48.981Z,99398.13
2022-09-12T19:56:52.925Z,99366.16
2022-09-12T20:01:55.639Z,99319.97
2022-09-12T20:06:58.335Z,99284.50
2022-09-12T20:12:02.768Z,99217.94
2022-09-12T20:17:05.497Z,99162.84
2022-09-12T20:22:08.350Z,99141.59
2022-09-12T20:27:12.394Z,99115.81
2022-09-12T20:32:15.064Z,99107.03
2022-09-12T20:37:17.718Z,99044.00
2022-09-12T20:42:21.779Z,99032.41
2022-09-12T20:47:24.486Z,99014.78
2022-09-12T20:52:27.165Z,98969.56
2022-09-12T20:57:31.135Z,98929.56
2022-09-12T21:02:33.945Z,98870.91
2022-09-12T21:07:36.686Z,98878.00
2022-09-12T21:12:40.717Z,98880.66
2022-09-12T21:17:43.354Z,98872.69
2022-09-12T21:22:46.051Z,98854.03
2022-09-12T21:27:50.190Z,98847.88
2022-09-12T21:32:52.873Z,98851.41
2022-09-12T21:37:55.502Z,98855.06
2022-09-12T21:42:59.519Z,98847.19
2022-09-12T21:48:02.508Z,98848.16
2022-09-12T21:53:05.125Z,98827.69
2022-09-12T21:58:09.188Z,98838.44
2022-09-12T22:03:12.614Z,98839.34
2022-09-12T22:08:15.264Z,98834.91
2022-09-12T22:13:19.297Z,98829.72
2022-09-12T22:18:22.013Z,98791.66
2022-09-12T22:23:42.043Z,98804.16
2022-09-12T22:28:47.232Z,98773.13
2022-09-12T22:33:50.750Z,98743.97
2022-09-12T22:38:53.379Z,98680.19
2022-09-12T22:43:57.564Z,98642.88
2022-09-12T22:49:00.312Z,98670.38
2022-09-12T22:54:03.510Z,98699.59
2022-09-12T22:59:07.706Z,98703.13
2022-09-12T23:04:11.940Z,98699.72
2022-09-12T23:09:14.623Z,98713.03
2022-09-12T23:14:18.601Z,98689.06
2022-09-12T23:19:21.192Z,98675.81
2022-09-12T23:24:23.788Z,98676.78
2022-09-12T23:29:28.264Z,98656.53
2022-09-12T23:34:30.935Z,98632.66
2022-09-12T23:39:34.067Z,98616.75
2022-09-12T23:44:37.970Z,98599.97
2022-09-12T23:49:40.567Z,98607.13
2022-09-12T23:54:43.153Z,98582.41
2022-09-12T23:59:47.124Z,98558.50
